This is the latest recevied weather packets stored in our database for station/object DK6GC-10. If no packets are shown the sender has not sent any weather packets the latest 10 day(s).
| Time | Temp. | Humidity | Pressure | Rain* | Wind** | Luminosity | Snow |
|---|---|---|---|---|---|---|---|
| 1777610722 | 6.11° C | 56% | 1025.4 hPa | - | - | - | - |
| 1777609822 | 6.67° C | 55% | 1025.3 hPa | - | - | - | - |
| 1777608922 | 6.67° C | 52% | 1025.1 hPa | - | - | - | - |
| 1777608022 | 7.22° C | 50% | 1025.1 hPa | - | - | - | - |
| 1777607122 | 6.67° C | 55% | 1025.1 hPa | - | - | - | - |
| 1777606222 | 7.22° C | 51% | 1025.1 hPa | - | - | - | - |
| 1777605321 | 8.33° C | 49% | 1025.2 hPa | - | - | - | - |
| 1777604421 | 10° C | 38% | 1025.2 hPa | - | - | - | - |
| 1777603521 | 10° C | 38% | 1025.1 hPa | - | - | - | - |
| 1777602621 | 10° C | 38% | 1025.4 hPa | - | - | - | - |
| 1777601720 | 10.56° C | 35% | 1025.5 hPa | - | - | - | - |
| 1777600820 | 10° C | 38% | 1025.5 hPa | - | - | - | - |
| 1777599920 | 9.44° C | 39% | 1025.4 hPa | - | - | - | - |
| 1777599020 | 8.89° C | 41% | 1025.5 hPa | - | - | - | - |
| 1777598120 | 7.78° C | 46% | 1025.4 hPa | - | - | - | - |
| 1777597220 | 7.78° C | 51% | 1025.5 hPa | - | - | - | - |
| 1777596319 | 8.33° C | 48% | 1025.5 hPa | - | - | - | - |
| 1777595419 | 9.44° C | 42% | 1025.5 hPa | - | - | - | - |
| 1777594519 | 9.44° C | 44% | 1025.4 hPa | - | - | - | - |
| 1777593624 | 10.56° C | 37% | 1025.4 hPa | - | - | - | - |
| 1777592723 | 10° C | 40% | 1025.5 hPa | - | - | - | - |
| 1777591823 | 11.67° C | 33% | 1025.5 hPa | - | - | - | - |
| 1777590923 | 11.11° C | 38% | 1025.5 hPa | - | - | - | - |
| 1777590023 | 11.11° C | 39% | 1025.3 hPa | - | - | - | - |
| 1777589123 | 11.67° C | 36% | 1025.2 hPa | - | - | - | - |
* Rain since midnight (hover to see other rain measurements)
** Current wind speed in m/s (hover to see current wind gust speed)